METAR Data
IDs: Format: Raw Decoded Include TAF

Data at: 0639 UTC 08 May 2021

KBWI 080554Z 24005KT 10SM FEW250 08/07 A2987 RMK AO2 SLP115 60000 T00780067 10111 20067 56008
KBWI 080454Z 25004KT 10SM FEW170 SCT250 08/07 A2988 RMK AO2 SLP116 T00780067 401890056
KBWI 080354Z 27004KT 10SM FEW049 FEW120 SCT170 BKN250 09/08 A2989 RMK AO2 SLP121 T00890078
KBWI 080254Z 29005KT 7SM BKN040 OVC120 10/08 A2990 RMK AO2 SLP123 60000 T01000083 51009
KBWI 080154Z 30007KT 10SM SCT039 OVC065 11/09 A2989 RMK AO2 SLP122 T01060089
KBWI 080054Z 29005KT 10SM SCT040 BKN065 OVC110 11/09 A2988 RMK AO2 RAE13 SLP116 P0000 T01060089
KBWI 072354Z COR 29006KT 5SM -RA BR FEW032 BKN050 OVC110 11/09 A2987 RMK AO2 SLP114 P0004 60019 T01110089 10183 20111 53003
KBWI 072351Z 29006KT 5SM -RA BR FEW032 BKN050 OVC060 11/09 A2987 RMK AO2 P0004
KBWI 072254Z 30006KT 6SM -RA BR BKN050 OVC070 12/09 A2985 RMK AO2 SLP110 P0002 T01170089
KBWI 072154Z 29007KT 5SM -RA BR SCT050 OVC070 12/08 A2985 RMK AO2 SLP109 P0006 T01170083
KBWI 072054Z 25007KT 3SM -RA BR FEW027 BKN050 OVC075 11/08 A2986 RMK AO2 SLP112 P0007 60007 T01110078 53009
KBWI 072015Z 27013KT 4SM -RA BR FEW033 BKN050 OVC080 12/08 A2984 RMK AO2 P0003 T01170078 $
KBWI 071954Z 21010G15KT 7SM -RA FEW041 BKN060 OVC090 13/07 A2983 RMK AO2 RAB13 SLP103 P0000 T01330072 $
KBWI 071854Z 26009KT 10SM SCT060 BKN080 BKN200 OVC250 16/06 A2983 RMK AO2 SLP101 VIRGA OHD SHRA NW-N T01610061
KBWI 071758Z 13007KT 10SM SCT080 BKN100 BKN200 OVC250 18/03 A2983 RMK AO2 VIRGA W SHRA NW-N T01830028
KBWI 071754Z VRB03KT 10SM SCT080 BKN100 BKN200 OVC250 18/03 A2983 RMK AO2 SLP101 VIRGA W SHRA NW-N T01830033 10189 20117 58019
KBWI 071654Z 15007KT 100V210 10SM FEW040 SCT080 BKN130 OVC200 18/04 A2985 RMK AO2 SLP109 SHRA W-NW T01830044
KBWI 071554Z VRB05KT 10SM FEW041 SCT130 BKN200 BKN250 18/04 A2988 RMK AO2 SLP116 T01830039
KBWI 071454Z 10009KT 10SM FEW041 SCT130 BKN200 17/04 A2989 RMK AO2 SLP120 T01670039 56005
KBWI 071354Z VRB06KT 10SM FEW070 SCT130 BKN200 17/03 A2989 RMK AO2 SLP120 T01670033
KBWI 071254Z 09010KT 10SM FEW080 BKN250 14/03 A2990 RMK AO2 SLP124 T01440028
KBWI 071154Z 10004KT 10SM FEW065 FEW100 BKN250 12/07 A2990 RMK AO2 SLP125 T01170067 10117 20056 56001
KBWI 071054Z 00000KT 10SM FEW065 FEW100 SCT170 BKN250 09/06 A2991 RMK AO2 SLP126 ACC DSNT S AND DSNT NW T00890061
KBWI 070954Z 30003KT 10SM FEW095 SCT250 06/04 A2990 RMK AO2 SLP125 T00610044
KBWI 070854Z 00000KT 10SM FEW250 07/04 A2991 RMK AO2 SLP126 T00720044 56010
KBWI 070754Z 26003KT 10SM FEW250 07/05 A2991 RMK AO2 SLP128 T00670050
KBWI 070654Z 00000KT 10SM FEW180 08/06 A2992 RMK AO2 SLP132 T00830061
KBWI 070554Z 00000KT 10SM FEW180 09/06 A2994 RMK AO2 SLP137 T00890061 10167 20083 58009
KBWI 070454Z 28003KT 10SM FEW180 BKN220 09/06 A2995 RMK AO2 SLP140 T00890056 401890072
KBWI 070354Z 00000KT 10SM FEW180 BKN210 10/06 A2996 RMK AO2 SLP143 T01000056
KBWI 070254Z 00000KT 10SM FEW210 12/05 A2997 RMK AO2 SLP146 T01220050 51004
KBWI 070154Z 00000KT 10SM SCT170 SCT210 13/05 A2997 RMK AO2 SLP146 T01280050
KBWI 070054Z 21003KT 10SM SCT170 BKN210 15/04 A2997 RMK AO2 SLP146 T01500039
KBWI 062354Z 00000KT 10SM FEW090 BKN170 BKN210 16/03 A2995 RMK AO2 SLP142 T01610028 10189 20156 53002
KBWI 062254Z 28004KT 10SM FEW090 BKN170 BKN210 17/03 A2994 RMK AO2 SLP138 T01720033
KBWI 062154Z 31006KT 10SM FEW060 BKN190 BKN240 17/03 A2994 RMK AO2 SLP138 T01720028
KBWI 062054Z VRB03KT 10SM FEW060 BKN190 BKN240 18/02 A2995 RMK AO2 SLP140 T01830017 56015
KBWI 061954Z 30006KT 10SM FEW060 BKN190 BKN240 18/02 A2995 RMK AO2 SLP141 T01830022
KBWI 061854Z 29003KT 10SM FEW060 BKN240 18/02 A2997 RMK AO2 SLP147 T01830022